createdAt,value
2018-05-13T00:00:14.563Z,84.41
2018-05-13T00:01:14.564Z,84.59
2018-05-13T00:02:14.567Z,84.27
2018-05-13T00:03:14.568Z,85.13
2018-05-13T00:04:14.569Z,85.13
2018-05-13T00:05:14.622Z,84.84
2018-05-13T00:06:14.570Z,85.89
2018-05-13T00:07:14.574Z,84.65
2018-05-13T00:08:14.575Z,85.32
2018-05-13T00:09:14.577Z,84.84
2018-05-13T00:10:14.578Z,85.51
2018-05-13T00:11:14.578Z,85.32
2018-05-13T00:12:14.583Z,85.22
2018-05-13T00:13:14.581Z,85.61
2018-05-13T00:14:14.581Z,85.41
2018-05-13T00:15:14.583Z,85.89
2018-05-13T00:16:14.585Z,85.89
2018-05-13T00:17:14.587Z,85.51
2018-05-13T00:18:14.591Z,85.71
2018-05-13T00:19:14.590Z,86.18
2018-05-13T00:20:14.591Z,85.89
2018-05-13T00:21:14.593Z,85.61
2018-05-13T00:22:14.593Z,85.51
2018-05-13T00:23:14.593Z,85.51
2018-05-13T00:24:14.596Z,85.80
2018-05-13T00:25:14.603Z,86.47
2018-05-13T00:26:14.602Z,86.47
2018-05-13T00:27:14.599Z,86.28
2018-05-13T00:28:14.601Z,86.66
2018-05-13T00:29:14.603Z,86.47
2018-05-13T00:30:14.604Z,87.09
2018-05-13T00:31:14.604Z,86.47
2018-05-13T00:32:14.606Z,87.09
2018-05-13T00:33:14.608Z,86.33
2018-05-13T00:34:14.607Z,86.71
2018-05-13T00:35:14.609Z,87.19
2018-05-13T00:36:14.610Z,86.80
2018-05-13T00:37:14.614Z,86.61
2018-05-13T00:38:14.616Z,87.00
2018-05-13T00:39:14.613Z,86.43
2018-05-13T00:40:14.614Z,86.71
2018-05-13T00:41:14.615Z,86.37
2018-05-13T00:42:14.625Z,86.37
2018-05-13T07:09:54.842Z,57.14
2018-05-13T07:10:54.848Z,54.21
2018-05-13T07:11:54.853Z,52.91
2018-05-13T07:12:54.858Z,51.56
2018-05-13T07:13:54.922Z,50.81
2018-05-13T07:14:54.873Z,49.49
2018-05-13T07:15:54.878Z,49.00
2018-05-13T07:16:54.887Z,47.96
2018-05-13T07:17:54.892Z,47.96
2018-05-13T07:18:55.171Z,49.19
2018-05-13T07:19:54.907Z,49.85
2018-05-13T07:20:54.913Z,50.13
2018-05-13T07:21:54.922Z,51.37
2018-05-13T07:22:54.927Z,51.75
2018-05-13T07:23:54.934Z,51.63
2018-05-13T07:24:54.942Z,52.37
2018-05-13T07:25:54.950Z,53.34
2018-05-13T07:26:54.958Z,52.86
2018-05-13T07:27:54.964Z,53.73
2018-05-13T07:28:54.971Z,54.21
2018-05-13T07:29:54.982Z,53.34
2018-05-13T07:30:54.990Z,53.17
2018-05-13T07:31:54.998Z,52.11
2018-05-13T07:32:55.005Z,51.56
2018-05-13T07:33:55.013Z,50.79
2018-05-13T07:34:55.021Z,51.07
2018-05-13T07:35:55.029Z,51.07
2018-05-13T07:36:55.038Z,51.10
2018-05-13T07:37:55.048Z,50.81
2018-05-13T07:38:55.055Z,51.68
2018-05-13T07:39:55.063Z,52.17
2018-05-13T07:40:55.073Z,51.49
2018-05-13T07:41:55.082Z,51.07
2018-05-13T07:42:55.090Z,52.31
2018-05-13T07:43:55.097Z,52.98
2018-05-13T07:44:55.106Z,53.73
2018-05-13T07:45:55.116Z,54.69
2018-05-13T07:46:55.123Z,55.24
2018-05-13T07:47:55.128Z,54.96
2018-05-13T07:48:55.138Z,55.34
2018-05-13T07:49:55.145Z,55.22
2018-05-13T07:50:55.171Z,55.22
2018-05-13T07:51:55.161Z,55.54
2018-05-13T07:52:55.170Z,54.21
2018-05-13T07:53:55.183Z,52.59
2018-05-13T07:54:55.194Z,53.01
2018-05-13T07:55:55.200Z,53.11
2018-05-13T07:56:55.208Z,51.49
2018-05-13T07:57:55.292Z,50.65
2018-05-13T07:58:55.231Z,49.44
2018-05-13T07:59:55.244Z,49.65
2018-05-13T08:00:55.253Z,49.07
2018-05-13T08:01:55.265Z,47.84
2018-05-13T08:02:55.278Z,46.99
2018-05-13T08:03:55.290Z,45.73
2018-05-13T08:04:55.311Z,46.12
2018-05-13T08:05:55.318Z,45.56
2018-05-13T08:06:55.335Z,45.29
2018-05-13T08:07:55.346Z,43.57
2018-05-13T08:08:55.361Z,42.81
2018-05-13T08:09:55.376Z,41.28
2018-05-13T08:10:55.391Z,41.18
2018-05-13T08:11:55.406Z,40.52
2018-05-13T08:12:55.421Z,39.06
2018-05-13T08:13:55.438Z,38.21
2018-05-13T08:14:55.453Z,38.81
2018-05-13T08:15:55.468Z,38.52
2018-05-13T08:16:55.484Z,38.01
2018-05-13T08:17:55.498Z,38.31
2018-05-13T08:18:55.515Z,38.70
2018-05-13T08:19:55.530Z,38.60
2018-05-13T08:20:55.547Z,38.70
2018-05-13T08:21:55.564Z,38.79
2018-05-13T08:22:55.581Z,38.57
2018-05-13T08:23:55.596Z,38.65
2018-05-13T08:24:55.613Z,39.03
2018-05-13T08:25:55.629Z,41.08
2018-05-13T08:26:55.646Z,40.11
2018-05-13T08:27:55.663Z,38.48
2018-05-13T08:28:55.679Z,37.82
2018-05-13T08:29:55.695Z,38.79
2018-05-13T08:30:55.714Z,37.84
2018-05-13T08:31:55.734Z,36.47
2018-05-13T08:32:55.747Z,36.18
2018-05-13T08:33:55.764Z,35.68
2018-05-13T08:34:55.781Z,35.89
2018-05-13T08:35:55.795Z,36.57
2018-05-13T08:36:55.813Z,37.32
2018-05-13T08:37:55.831Z,37.51
2018-05-13T08:38:55.848Z,38.19
2018-05-13T08:39:55.867Z,37.92
2018-05-13T08:40:55.885Z,37.26
2018-05-13T08:41:55.927Z,36.00
2018-05-13T08:42:55.918Z,35.93
2018-05-13T08:43:55.933Z,35.25
2018-05-13T08:44:55.954Z,35.26
2018-05-13T08:45:55.969Z,36.14
2018-05-13T08:46:55.987Z,34.48
2018-05-13T08:47:56.005Z,36.24
2018-05-13T08:48:56.021Z,35.75
2018-05-13T08:49:56.040Z,34.88
2018-05-13T08:50:56.058Z,35.06
2018-05-13T08:51:56.075Z,35.75
2018-05-13T08:52:56.098Z,35.94
2018-05-13T08:53:56.133Z,37.00
2018-05-13T08:54:56.129Z,37.48
2018-05-13T08:55:56.146Z,37.19
2018-05-13T08:56:56.209Z,37.00
2018-05-13T08:57:56.184Z,35.94
2018-05-13T08:58:56.202Z,35.96
2018-05-13T08:59:56.218Z,35.08
2018-05-13T09:00:56.236Z,35.16
2018-05-13T09:01:56.259Z,35.75
2018-05-13T09:02:56.278Z,36.63
2018-05-13T09:03:56.307Z,36.53
2018-05-13T09:04:56.307Z,36.71
2018-05-13T09:05:56.329Z,37.46
2018-05-13T09:06:56.346Z,37.58
2018-05-13T09:07:56.362Z,38.64
2018-05-13T09:08:56.377Z,37.87
2018-05-13T09:09:56.396Z,38.46
2018-05-13T09:10:56.415Z,37.41
2018-05-13T09:11:56.432Z,38.28
2018-05-13T09:12:56.452Z,37.02
2018-05-13T09:13:56.468Z,36.63
2018-05-13T09:14:56.682Z,35.94
2018-05-13T09:15:56.501Z,35.75
2018-05-13T09:16:56.518Z,34.97
2018-05-13T09:17:56.537Z,35.75
2018-05-13T09:18:56.555Z,36.14
2018-05-13T09:19:56.572Z,36.14
2018-05-13T09:20:56.615Z,36.24
2018-05-13T09:21:56.611Z,36.43
2018-05-13T09:22:56.624Z,37.50
2018-05-13T09:23:56.646Z,36.72
2018-05-13T09:24:56.663Z,35.85
2018-05-13T09:25:56.678Z,35.83
2018-05-13T09:26:56.694Z,36.04
2018-05-13T09:27:56.712Z,37.79
2018-05-13T09:28:56.729Z,35.46
2018-05-13T09:29:56.747Z,35.77
2018-05-13T09:30:56.766Z,35.57
2018-05-13T09:31:56.780Z,35.47
2018-05-13T09:32:56.880Z,35.57
2018-05-13T09:33:56.818Z,34.09
2018-05-13T09:34:56.832Z,35.94
2018-05-13T09:35:56.851Z,36.63
2018-05-13T09:36:56.867Z,35.55
2018-05-13T09:37:56.885Z,36.55
2018-05-13T09:38:56.902Z,34.89
2018-05-13T09:39:56.919Z,35.18
2018-05-13T09:40:56.936Z,34.59
2018-05-13T09:41:56.953Z,34.40
2018-05-13T09:42:56.974Z,34.97
2018-05-13T09:43:56.987Z,35.55
2018-05-13T09:44:57.005Z,34.50
2018-05-13T09:45:57.067Z,34.52
2018-05-13T09:46:57.040Z,33.83
2018-05-13T09:47:57.057Z,32.65
2018-05-13T09:48:57.073Z,33.90
2018-05-13T09:49:57.091Z,34.08
2018-05-13T09:50:57.151Z,35.42
2018-05-13T09:51:57.125Z,35.21
2018-05-13T09:52:57.141Z,35.58
2018-05-13T09:53:57.163Z,36.07
2018-05-13T09:54:57.176Z,37.35
2018-05-13T09:55:57.191Z,36.38
2018-05-13T09:56:57.209Z,36.88
2018-05-13T09:57:57.226Z,35.91
2018-05-13T09:58:57.242Z,37.68
2018-05-13T09:59:57.256Z,35.93
2018-05-13T10:00:57.274Z,35.36
2018-05-13T10:01:57.291Z,35.06
2018-05-13T10:02:57.307Z,35.75
2018-05-13T10:03:57.324Z,35.85
2018-05-13T10:04:57.339Z,35.25
2018-05-13T10:05:57.355Z,35.91
2018-05-13T10:06:57.372Z,36.49
2018-05-13T10:07:57.387Z,36.30
2018-05-13T10:08:57.404Z,36.18
2018-05-13T10:09:57.419Z,37.06
2018-05-13T10:10:57.435Z,36.69
2018-05-13T10:11:57.451Z,36.38
2018-05-13T10:12:57.466Z,36.26
2018-05-13T10:13:57.483Z,36.94
2018-05-13T10:14:57.497Z,36.46
2018-05-13T10:15:57.514Z,39.69
2018-05-13T10:16:57.528Z,39.29
2018-05-13T10:17:57.544Z,38.64
2018-05-13T10:18:57.820Z,38.36
2018-05-13T10:19:57.574Z,37.68
2018-05-13T10:20:57.595Z,36.92
2018-05-13T10:21:57.607Z,37.60
2018-05-13T10:22:57.623Z,36.35
2018-05-13T10:23:57.636Z,36.25
2018-05-13T10:24:57.651Z,34.61
2018-05-13T10:25:57.807Z,34.81
2018-05-13T10:26:57.684Z,35.08
2018-05-13T10:27:57.699Z,34.99
2018-05-13T10:28:57.713Z,34.88
2018-05-13T10:29:57.729Z,36.63
2018-05-13T10:30:57.760Z,38.01
2018-05-13T10:31:57.760Z,35.06
2018-05-13T10:32:57.774Z,34.29
2018-05-13T10:33:57.790Z,36.63
2018-05-13T10:34:57.807Z,37.50
2018-05-13T10:35:57.822Z,36.33
2018-05-13T10:36:57.835Z,35.63
2018-05-13T10:37:57.904Z,36.49
2018-05-13T10:38:57.868Z,38.01
2018-05-13T10:39:57.884Z,38.01
2018-05-13T10:40:57.897Z,38.31
2018-05-13T10:41:57.918Z,37.32
2018-05-13T10:42:57.932Z,38.70
2018-05-13T10:43:57.942Z,38.60
2018-05-13T10:44:57.956Z,37.41
2018-05-13T10:45:57.971Z,38.77
2018-05-13T10:46:57.987Z,38.95
2018-05-13T10:47:58.000Z,38.75
2018-05-13T10:48:58.014Z,39.34
2018-05-13T10:49:58.030Z,39.43
2018-05-13T10:50:58.043Z,39.32
2018-05-13T10:51:58.057Z,40.21
2018-05-13T10:52:58.075Z,39.65
2018-05-13T10:53:58.085Z,38.98
2018-05-13T10:54:58.100Z,39.06
2018-05-13T10:55:58.113Z,38.87
2018-05-13T10:56:58.127Z,39.72
2018-05-13T10:57:58.142Z,40.48
2018-05-13T10:58:58.160Z,40.77
2018-05-13T10:59:58.173Z,41.26
2018-05-13T11:00:58.182Z,41.08
2018-05-13T11:01:58.197Z,40.11
2018-05-13T11:02:58.212Z,40.60
2018-05-13T11:03:58.224Z,41.59
2018-05-13T11:04:58.237Z,41.20
2018-05-13T11:05:58.251Z,41.03
2018-05-13T11:06:58.267Z,37.64
2018-05-13T11:07:58.282Z,39.12
2018-05-13T11:08:58.293Z,38.64
2018-05-13T11:09:58.307Z,38.95
2018-05-13T11:10:58.320Z,37.56
2018-05-13T11:11:58.334Z,38.75
2018-05-13T11:12:58.349Z,39.14
2018-05-13T11:13:58.362Z,38.44
2018-05-13T11:14:58.377Z,40.00
2018-05-13T11:15:58.457Z,37.95
2018-05-13T11:16:58.405Z,37.95
2018-05-13T11:17:58.419Z,39.51
2018-05-13T11:18:58.431Z,39.43
2018-05-13T11:19:58.447Z,38.95
2018-05-13T11:20:58.462Z,37.39
2018-05-13T11:21:58.474Z,36.61
2018-05-13T11:22:58.488Z,38.77
2018-05-13T11:23:58.501Z,36.65
2018-05-13T11:24:58.515Z,35.39
2018-05-13T11:25:58.529Z,37.93
2018-05-13T11:26:58.608Z,35.57
2018-05-13T11:27:58.558Z,37.87
2018-05-13T11:28:58.574Z,38.64
2018-05-13T11:29:58.587Z,38.11
2018-05-13T11:30:58.603Z,38.37
2018-05-13T11:31:58.613Z,40.05
2018-05-13T11:32:58.626Z,41.61
2018-05-13T11:33:58.640Z,41.10
2018-05-13T11:34:58.652Z,41.86
2018-05-13T11:35:58.662Z,42.63
2018-05-13T11:36:58.674Z,44.37
2018-05-13T11:37:58.685Z,44.18
2018-05-13T11:38:58.699Z,42.72
2018-05-13T11:39:58.875Z,42.32
2018-05-13T11:40:58.718Z,43.00
2018-05-13T11:41:58.729Z,44.16
2018-05-13T11:42:58.742Z,45.22
2018-05-13T11:43:58.749Z,44.45
2018-05-13T11:44:58.760Z,45.42
2018-05-13T11:45:58.770Z,44.16
2018-05-13T11:46:58.780Z,44.16
2018-05-13T11:47:58.790Z,46.87
2018-05-13T11:48:58.800Z,45.42
2018-05-13T11:49:58.809Z,43.48
2018-05-13T11:50:58.818Z,43.46
2018-05-13T11:51:58.828Z,44.50
2018-05-13T11:52:58.837Z,44.21
2018-05-13T11:53:58.851Z,45.57
2018-05-13T11:54:58.855Z,46.05
2018-05-13T11:55:58.864Z,45.47
2018-05-13T11:56:58.901Z,44.87
2018-05-13T11:57:58.882Z,44.96
2018-05-13T11:58:58.891Z,45.35
2018-05-13T11:59:59.061Z,45.81
2018-05-13T12:00:58.907Z,46.30
2018-05-13T12:01:58.970Z,46.78
2018-05-13T12:02:58.923Z,46.68
2018-05-13T12:03:58.930Z,47.45
2018-05-13T12:04:58.939Z,46.85
2018-05-13T12:05:58.946Z,46.66
2018-05-13T12:06:58.955Z,46.56
2018-05-13T12:07:58.961Z,46.66
2018-05-13T12:08:58.969Z,47.33
2018-05-13T12:09:58.977Z,47.91
2018-05-13T12:10:58.986Z,49.07
2018-05-13T12:11:59.013Z,48.49
2018-05-13T12:12:58.999Z,50.13
2018-05-13T12:13:59.007Z,51.49
2018-05-13T12:14:59.014Z,52.94
2018-05-13T12:15:59.021Z,55.13
2018-05-13T12:16:59.029Z,54.97
2018-05-13T12:17:59.035Z,55.07
2018-05-13T12:18:59.042Z,53.33
2018-05-13T12:19:59.049Z,52.97
2018-05-13T12:20:59.099Z,52.87
2018-05-13T12:21:59.066Z,51.61
2018-05-13T12:22:59.089Z,52.29
2018-05-13T12:23:59.150Z,50.07
2018-05-13T12:24:59.089Z,49.97
2018-05-13T12:25:59.110Z,52.39
2018-05-13T12:26:59.107Z,53.86
2018-05-13T12:27:59.109Z,50.50
2018-05-13T12:28:59.167Z,50.09
2018-05-13T12:29:59.127Z,49.15
2018-05-13T12:30:59.134Z,48.76
2018-05-13T12:31:59.141Z,51.28
2018-05-13T12:32:59.151Z,50.12
2018-05-13T12:33:59.158Z,51.08
2018-05-13T12:34:59.165Z,50.21
2018-05-13T12:35:59.173Z,47.96
2018-05-13T12:36:59.182Z,46.90
2018-05-13T12:37:59.202Z,47.36
2018-05-13T12:38:59.200Z,48.61
2018-05-13T12:39:59.206Z,50.55
2018-05-13T12:40:59.212Z,52.29
2018-05-13T12:41:59.219Z,52.89
2018-05-13T12:42:59.228Z,51.35
2018-05-13T12:43:59.233Z,50.65
2018-05-13T12:44:59.246Z,50.76
2018-05-13T12:45:59.249Z,50.09
2018-05-13T12:46:59.256Z,50.57
2018-05-13T12:47:59.264Z,51.06
2018-05-13T12:48:59.275Z,50.67
2018-05-13T12:49:59.281Z,48.35
2018-05-13T12:50:59.287Z,47.36
2018-05-13T12:51:59.293Z,47.58
2018-05-13T12:52:59.303Z,50.26
2018-05-13T12:53:59.310Z,48.64
2018-05-13T12:54:59.315Z,49.99
2018-05-13T12:55:59.325Z,50.18
2018-05-13T12:56:59.332Z,50.76
2018-05-13T12:57:59.343Z,50.21
2018-05-13T12:58:59.347Z,49.24
2018-05-13T12:59:59.352Z,46.84
2018-05-13T13:00:59.360Z,47.64
2018-05-13T13:01:59.368Z,45.64
2018-05-13T13:02:59.456Z,46.31
2018-05-13T13:03:59.384Z,46.12
2018-05-13T13:04:59.391Z,46.04
2018-05-13T13:05:59.402Z,46.31
2018-05-13T13:06:59.408Z,49.51
2018-05-13T13:07:59.419Z,51.52
2018-05-13T13:08:59.424Z,53.89
2018-05-13T13:09:59.437Z,53.28
2018-05-13T13:10:59.442Z,54.32
2018-05-13T13:11:59.449Z,55.65
2018-05-13T13:12:59.509Z,55.71
2018-05-13T13:13:59.465Z,57.52
2018-05-13T13:14:59.473Z,58.75
2018-05-13T13:15:59.480Z,58.65
2018-05-13T13:16:59.489Z,59.20
2018-05-13T13:17:59.497Z,59.97
2018-05-13T13:18:59.504Z,60.55
2018-05-13T13:19:59.602Z,61.32
2018-05-13T13:20:59.518Z,60.42
2018-05-13T13:21:59.527Z,61.96
2018-05-13T13:22:59.534Z,61.35
2018-05-13T13:23:59.539Z,61.35
2018-05-13T13:24:59.549Z,62.51
2018-05-13T13:25:59.631Z,62.19
2018-05-13T13:26:59.562Z,62.87
2018-05-13T13:27:59.569Z,64.28
2018-05-13T13:28:59.574Z,64.47
2018-05-13T13:29:59.581Z,64.18
2018-05-13T13:30:59.588Z,63.31
2018-05-13T13:31:59.593Z,63.02
2018-05-13T13:32:59.599Z,66.20
2018-05-13T13:33:59.681Z,67.71
2018-05-13T13:34:59.612Z,68.86
2018-05-13T13:35:59.618Z,70.21
2018-05-13T13:36:59.625Z,72.38
2018-05-13T13:37:59.631Z,72.67
2018-05-13T13:38:59.639Z,75.46
2018-05-13T13:39:59.650Z,75.04
2018-05-13T13:40:59.650Z,74.27
2018-05-13T13:41:59.653Z,74.52
2018-05-13T13:42:59.659Z,75.77
2018-05-13T13:43:59.664Z,77.59
2018-05-13T13:44:59.670Z,77.78
2018-05-13T13:45:59.676Z,77.01
2018-05-13T13:46:59.682Z,78.08
2018-05-13T13:47:59.687Z,77.69
2018-05-13T13:48:59.691Z,78.45
2018-05-13T13:49:59.698Z,79.27
2018-05-13T13:50:59.703Z,77.34
2018-05-13T13:51:59.708Z,78.59
2018-05-13T13:52:59.713Z,77.92
2018-05-13T13:53:59.784Z,78.69
2018-05-13T13:54:59.725Z,78.63
2018-05-13T13:55:59.851Z,77.96
2018-05-13T13:56:59.736Z,78.44
2018-05-13T13:57:59.740Z,80.02
2018-05-13T13:58:59.746Z,81.27
2018-05-13T13:59:59.751Z,78.61
2018-05-13T14:00:59.759Z,76.53
2018-05-13T14:01:59.764Z,72.49
2018-05-13T14:02:59.770Z,73.88
2018-05-13T14:03:59.776Z,76.18
2018-05-13T14:04:59.781Z,74.45
2018-05-13T14:05:59.790Z,78.25
2018-05-13T14:06:59.795Z,74.58
2018-05-13T14:07:59.799Z,71.34
2018-05-13T14:08:59.806Z,71.34
2018-05-13T14:09:59.813Z,67.58
2018-05-13T14:10:59.819Z,67.10
2018-05-13T14:11:59.894Z,67.78
2018-05-13T14:12:59.831Z,67.81
2018-05-13T14:13:59.839Z,64.98
2018-05-13T14:14:59.846Z,66.27
2018-05-13T14:15:59.852Z,67.71
2018-05-13T14:16:59.858Z,67.88
2018-05-13T14:17:59.865Z,66.14
2018-05-13T14:18:59.874Z,66.20
2018-05-13T14:19:59.888Z,66.30
2018-05-13T14:20:59.888Z,68.23
2018-05-13T14:21:59.893Z,66.30
2018-05-13T14:22:59.903Z,65.72
2018-05-13T14:23:59.906Z,64.66
2018-05-13T14:24:59.917Z,62.06
2018-05-13T14:25:59.922Z,62.35
2018-05-13T14:26:59.982Z,62.25
2018-05-13T14:27:59.933Z,65.72
2018-05-13T14:28:59.945Z,64.56
2018-05-13T14:29:59.948Z,65.24
2018-05-13T14:30:59.956Z,63.98
2018-05-13T14:31:59.963Z,62.83
2018-05-13T14:32:59.997Z,64.56
2018-05-13T14:33:59.974Z,66.39
2018-05-13T14:34:59.981Z,66.11
2018-05-13T14:36:01.055Z,66.30
2018-05-13T14:36:59.995Z,65.91
2018-05-13T14:38:00.084Z,67.26
2018-05-13T14:39:00.008Z,67.36
2018-05-13T14:40:00.088Z,66.72
2018-05-13T14:41:00.051Z,64.89
2018-05-13T14:42:00.028Z,63.44
2018-05-13T14:43:00.034Z,64.50
2018-05-13T14:44:00.041Z,62.96
2018-05-13T14:45:00.047Z,63.06
2018-05-13T14:46:00.054Z,64.21
2018-05-13T14:47:00.061Z,65.17
2018-05-13T14:48:00.068Z,66.69
2018-05-13T14:49:00.078Z,67.26
2018-05-13T14:50:00.082Z,65.63
2018-05-13T14:51:00.089Z,65.72
2018-05-13T14:52:00.094Z,66.88
2018-05-13T14:53:00.102Z,67.46
2018-05-13T14:54:00.109Z,65.47
2018-05-13T14:55:00.116Z,65.91
2018-05-13T14:56:00.122Z,65.05
2018-05-13T14:57:00.126Z,66.91
2018-05-13T14:58:00.215Z,65.33
2018-05-13T14:59:00.139Z,65.63
2018-05-13T15:00:00.147Z,65.53
2018-05-13T15:01:00.180Z,65.91
2018-05-13T15:02:00.163Z,66.01
2018-05-13T15:03:00.209Z,67.36
2018-05-13T15:04:00.178Z,67.74
2018-05-13T15:05:00.223Z,66.20
2018-05-13T15:06:00.185Z,65.63
2018-05-13T15:07:00.191Z,64.47
2018-05-13T15:08:00.197Z,63.79
2018-05-13T15:09:00.204Z,63.98
2018-05-13T15:10:00.209Z,65.14
2018-05-13T15:11:00.217Z,66.01
2018-05-13T15:12:00.223Z,66.78
2018-05-13T15:13:00.229Z,66.69
2018-05-13T15:14:00.235Z,65.05
2018-05-13T15:15:00.241Z,64.47
2018-05-13T15:16:00.248Z,65.53
2018-05-13T15:17:00.253Z,65.24
2018-05-13T15:18:00.260Z,64.95
2018-05-13T15:19:00.272Z,65.63
2018-05-13T15:20:00.272Z,65.72
2018-05-13T15:21:00.279Z,67.65
2018-05-13T15:22:00.285Z,70.35
2018-05-13T15:23:00.292Z,70.44
2018-05-13T15:24:00.298Z,69.06
2018-05-13T15:25:00.309Z,67.33
2018-05-13T15:26:00.309Z,67.61
2018-05-13T15:27:00.317Z,69.89
2018-05-13T15:28:00.323Z,70.28
2018-05-13T15:29:00.389Z,70.89
2018-05-13T15:30:00.335Z,70.21
2018-05-13T15:31:00.341Z,71.18
2018-05-13T15:32:00.347Z,71.50
2018-05-13T15:33:00.352Z,69.48
2018-05-13T15:34:00.358Z,68.99
2018-05-13T15:35:00.365Z,69.57
2018-05-13T15:36:00.371Z,69.67
2018-05-13T15:37:00.377Z,70.44
2018-05-13T15:38:00.388Z,70.25
2018-05-13T15:39:00.388Z,69.77
2018-05-13T15:40:00.394Z,69.29
2018-05-13T15:41:00.399Z,69.48
2018-05-13T15:42:00.407Z,69.64
2018-05-13T15:43:00.480Z,69.54
2018-05-13T15:44:00.418Z,69.48
2018-05-13T15:45:00.428Z,69.57
2018-05-13T15:46:00.430Z,69.15
2018-05-13T15:47:00.437Z,68.80
2018-05-13T15:48:00.442Z,68.00
2018-05-13T15:49:00.505Z,68.58
2018-05-13T15:50:00.455Z,68.19
2018-05-13T15:51:00.460Z,68.10
2018-05-13T15:52:00.467Z,69.02
2018-05-13T15:53:00.471Z,68.64
2018-05-13T15:54:00.478Z,69.02
2018-05-13T15:55:00.581Z,69.12
2018-05-13T15:56:00.488Z,69.99
2018-05-13T15:57:00.493Z,69.89
2018-05-13T15:58:00.499Z,69.70
2018-05-13T15:59:00.507Z,69.89
2018-05-13T16:00:00.513Z,70.37
2018-05-13T16:01:00.520Z,70.28
2018-05-13T16:02:00.521Z,69.79
2018-05-13T16:03:00.530Z,69.45
2018-05-13T16:04:00.532Z,68.19
2018-05-13T16:05:00.539Z,66.62
2018-05-13T16:06:00.544Z,68.64
2018-05-13T16:07:00.549Z,69.70
2018-05-13T16:08:00.555Z,69.41
2018-05-13T16:09:00.561Z,70.09
2018-05-13T16:10:00.568Z,69.41
2018-05-13T16:11:00.573Z,69.06
2018-05-13T16:12:00.578Z,68.54
2018-05-13T16:13:00.583Z,66.55
2018-05-13T16:14:00.594Z,66.17
2018-05-13T16:15:00.595Z,65.20
2018-05-13T16:16:00.600Z,65.88
2018-05-13T16:17:00.607Z,66.46
2018-05-13T16:18:00.611Z,67.13
2018-05-13T16:19:00.648Z,66.55
2018-05-13T16:20:00.623Z,65.78
2018-05-13T16:21:00.627Z,65.46
2018-05-13T16:22:00.633Z,65.08
2018-05-13T16:23:00.639Z,65.17
2018-05-13T16:24:00.643Z,65.56
2018-05-13T16:25:00.652Z,66.04
2018-05-13T16:26:00.655Z,65.46
2018-05-13T16:27:00.662Z,66.24
2018-05-13T16:28:00.666Z,66.62
2018-05-13T16:29:00.671Z,68.16
2018-05-13T16:30:00.761Z,68.90
2018-05-13T16:31:00.682Z,70.43
2018-05-13T16:32:00.686Z,72.26
2018-05-13T16:33:00.691Z,73.51
2018-05-13T16:34:00.698Z,73.90
2018-05-13T16:35:00.704Z,74.57
2018-05-13T16:36:00.709Z,74.05
2018-05-13T16:37:00.714Z,74.15
2018-05-13T16:38:00.719Z,74.54
2018-05-13T16:39:00.723Z,74.73
2018-05-13T16:40:00.729Z,74.63
2018-05-13T16:41:00.735Z,75.88
2018-05-13T16:42:00.740Z,76.84
2018-05-13T16:43:00.747Z,77.71
2018-05-13T16:44:00.748Z,78.77
2018-05-13T16:45:00.754Z,78.19
2018-05-13T16:46:00.760Z,77.48
2018-05-13T16:47:00.764Z,78.96
2018-05-13T16:48:00.769Z,76.23
2018-05-13T16:49:00.774Z,75.37
2018-05-13T16:50:00.779Z,76.42
2018-05-13T16:51:00.785Z,74.88
2018-05-13T16:52:00.788Z,76.04
2018-05-13T16:53:00.873Z,74.50
2018-05-13T16:54:00.801Z,74.88
2018-05-13T16:55:00.804Z,76.56
2018-05-13T16:56:00.808Z,76.17
2018-05-13T16:57:00.812Z,78.00
2018-05-13T16:58:00.818Z,77.71
2018-05-13T16:59:00.823Z,75.02
2018-05-13T17:00:00.827Z,74.57
2018-05-13T17:01:00.832Z,73.51
2018-05-13T17:02:00.838Z,75.05
2018-05-13T17:03:00.843Z,74.48
2018-05-13T17:04:00.846Z,75.05
2018-05-13T17:05:00.853Z,74.29
2018-05-13T17:06:00.857Z,73.03
2018-05-13T17:07:00.862Z,74.57
2018-05-13T17:08:00.867Z,74.48
2018-05-13T17:09:00.877Z,74.48
2018-05-13T17:10:00.876Z,72.65
2018-05-13T17:11:00.882Z,72.45
2018-05-13T17:12:00.885Z,72.65
2018-05-13T17:13:00.891Z,72.17
2018-05-13T17:14:00.895Z,73.67
2018-05-13T17:15:00.903Z,73.77
2018-05-13T17:16:00.904Z,74.44
2018-05-13T17:17:00.929Z,73.67
2018-05-13T17:18:00.942Z,73.38
2018-05-13T17:19:00.920Z,74.30
2018-05-13T17:20:00.925Z,74.11
2018-05-13T17:21:00.930Z,73.83
2018-05-13T17:22:00.935Z,73.83
2018-05-13T17:23:00.938Z,72.67
2018-05-13T17:24:00.942Z,72.19
2018-05-13T17:25:00.947Z,72.29
2018-05-13T17:26:00.951Z,71.42
2018-05-13T17:27:00.957Z,71.52
2018-05-13T17:28:00.961Z,72.48
2018-05-13T17:29:00.964Z,75.17
2018-05-13T17:30:00.969Z,74.30
2018-05-13T17:31:00.975Z,75.46
2018-05-13T17:32:00.979Z,74.30
2018-05-13T17:33:00.982Z,72.67
2018-05-13T17:34:00.986Z,72.09
2018-05-13T17:35:00.991Z,72.38
2018-05-13T17:36:00.995Z,72.86
2018-05-13T17:37:00.999Z,73.44
2018-05-13T17:38:01.005Z,74.30
2018-05-13T17:39:01.013Z,74.02
2018-05-13T17:40:01.013Z,76.14
2018-05-13T17:41:01.016Z,76.23
2018-05-13T17:42:01.020Z,76.23
2018-05-13T17:43:01.026Z,75.75
2018-05-13T17:44:01.027Z,75.94
2018-05-13T17:45:01.032Z,77.29
2018-05-13T17:46:01.038Z,77.48
2018-05-13T17:47:01.041Z,76.96
2018-05-13T17:48:01.045Z,76.23
2018-05-13T17:49:01.049Z,76.61
2018-05-13T17:50:01.135Z,75.42
2018-05-13T17:51:01.057Z,75.52
2018-05-13T17:52:01.061Z,76.00
2018-05-13T17:53:01.066Z,75.71
2018-05-13T17:54:01.071Z,75.90
2018-05-13T17:55:01.074Z,76.96
2018-05-13T17:56:01.078Z,76.67
2018-05-13T17:57:01.086Z,76.39
2018-05-13T17:58:01.088Z,76.48
2018-05-13T17:59:01.092Z,76.29
2018-05-13T18:00:01.094Z,76.57
2018-05-13T18:01:01.099Z,76.77
2018-05-13T18:02:01.104Z,76.48
2018-05-13T18:03:01.161Z,76.96
2018-05-13T18:04:01.111Z,76.86
2018-05-13T18:05:01.114Z,76.48
2018-05-13T18:06:01.119Z,76.96
2018-05-13T18:07:01.124Z,76.29
2018-05-13T18:08:01.126Z,76.57
2018-05-13T18:09:01.131Z,77.25
2018-05-13T18:10:01.137Z,76.67
2018-05-13T18:11:01.144Z,77.15
2018-05-13T18:12:01.144Z,78.11
2018-05-13T18:13:01.147Z,78.59
2018-05-13T18:14:01.152Z,77.83
2018-05-13T18:15:01.157Z,77.53
2018-05-13T18:16:01.160Z,77.59
2018-05-13T18:17:01.164Z,77.98
2018-05-13T18:18:01.168Z,77.40
2018-05-13T18:19:01.179Z,77.88
2018-05-13T18:20:01.176Z,78.65
2018-05-13T18:21:01.178Z,78.45
2018-05-13T18:22:01.186Z,78.27
2018-05-13T18:23:01.192Z,78.84
2018-05-13T18:24:01.190Z,79.19
2018-05-13T18:25:01.194Z,79.22
2018-05-13T18:26:01.197Z,79.32
2018-05-13T18:27:01.203Z,79.19
2018-05-13T18:28:01.206Z,80.34
2018-05-13T18:29:01.208Z,80.57
2018-05-13T18:30:01.214Z,80.47
2018-05-13T18:31:01.233Z,80.05
2018-05-13T18:32:01.219Z,80.86
2018-05-13T18:33:01.223Z,80.76
2018-05-13T18:34:01.233Z,80.43
2018-05-13T18:35:01.237Z,80.53
2018-05-13T18:36:01.232Z,80.63
2018-05-13T18:37:01.237Z,80.53
2018-05-13T18:38:01.242Z,80.05
2018-05-13T18:39:01.312Z,80.15
2018-05-13T18:40:01.260Z,79.96
2018-05-13T18:41:01.254Z,79.96
2018-05-13T18:42:01.256Z,79.96
2018-05-13T18:43:01.259Z,79.96
2018-05-13T18:44:01.261Z,79.96
2018-05-13T18:45:01.264Z,80.73
2018-05-13T18:46:01.270Z,81.10
2018-05-13T18:47:01.273Z,81.49
2018-05-13T18:48:01.275Z,81.10
2018-05-13T18:49:01.280Z,81.30
2018-05-13T18:50:01.284Z,81.20
2018-05-13T18:51:01.286Z,81.30
2018-05-13T18:52:01.289Z,82.54
2018-05-13T18:53:01.293Z,82.54
2018-05-13T18:54:01.297Z,81.87
2018-05-13T18:55:01.301Z,81.68
2018-05-13T18:56:01.304Z,81.87
2018-05-13T18:57:01.307Z,81.49
2018-05-13T18:58:01.311Z,81.78
2018-05-13T18:59:01.324Z,80.63
2018-05-13T19:00:01.317Z,81.49
2018-05-13T19:01:01.320Z,81.49
2018-05-13T19:02:01.324Z,81.87
2018-05-13T19:03:01.328Z,82.26
2018-05-13T19:04:01.330Z,82.64
2018-05-13T19:05:01.334Z,82.54
2018-05-13T19:06:01.338Z,82.31
2018-05-13T19:07:01.341Z,81.74
2018-05-13T19:08:01.345Z,82.41
2018-05-13T19:09:01.348Z,82.21
2018-05-13T19:10:01.354Z,82.79
2018-05-13T19:11:01.354Z,82.89
2018-05-13T19:12:01.439Z,83.75
2018-05-13T19:13:01.359Z,83.56
2018-05-13T19:14:01.368Z,82.21
2018-05-13T19:15:01.372Z,82.21
2018-05-13T19:16:01.371Z,81.74
2018-05-13T19:17:01.373Z,81.74
2018-05-13T19:18:01.377Z,80.49
2018-05-13T19:19:01.473Z,81.26